Time;durP1;ratioP1;P1;durP2;ratioP2;P2;SDS_P1;SDS_P2;PMS_P1;PMS_P2;Temp;Humidity;BMP_temperature;BMP_pressure;BME280_temperature;BME280_humidity;BME280_pressure;Samples;Min_cycle;Max_cycle;Signal;HPM_P1;HPM_P2
2023/07/20 00:01:04;;;;;;;1.37;1.27;;;25.10;53.20;;;;;;5104220;28;20205;-88
2023/07/20 00:03:30;;;;;;;1.50;1.33;;;25.10;53.20;;;;;;5110694;28;20170;-88
2023/07/20 00:05:55;;;;;;;3.00;1.50;;;25.10;53.20;;;;;;5106224;28;20545;-88
2023/07/20 00:08:21;;;;;;;2.23;1.70;;;25.10;53.20;;;;;;5110270;28;20174;-88
2023/07/20 00:10:47;;;;;;;2.90;1.40;;;25.10;53.30;;;;;;5105224;28;20284;-88
2023/07/20 00:13:15;;;;;;;1.53;1.20;;;25.10;53.20;;;;;;5110820;28;20174;-88
2023/07/20 00:15:41;;;;;;;2.07;1.30;;;25.10;53.30;;;;;;5105318;28;20489;-88
2023/07/20 00:18:07;;;;;;;2.50;1.40;;;25.10;53.30;;;;;;5102593;28;20690;-88
2023/07/20 00:20:33;;;;;;;1.40;1.30;;;25.10;53.30;;;;;;5114582;28;20212;-87
2023/07/20 00:22:58;;;;;;;1.67;1.47;;;25.10;53.30;;;;;;5105539;28;20471;-87
2023/07/20 00:25:24;;;;;;;1.87;1.40;;;25.10;53.20;;;;;;5102869;28;20178;-87
2023/07/20 00:27:50;;;;;;;1.67;1.30;;;25.10;53.30;;;;;;5102920;28;20174;-87
2023/07/20 00:30:16;;;;;;;2.53;1.50;;;25.00;53.30;;;;;;5105996;28;20429;-86
2023/07/20 00:32:43;;;;;;;2.10;1.40;;;25.10;53.30;;;;;;5106608;28;20194;-86
2023/07/20 00:35:09;;;;;;;1.73;1.47;;;25.00;53.20;;;;;;5105227;28;20479;-87
2023/07/20 00:37:34;;;;;;;2.40;1.40;;;25.00;53.30;;;;;;5101947;28;20213;-86
2023/07/20 00:40:00;;;;;;;1.40;1.27;;;25.00;53.30;;;;;;5107511;28;20614;-86
2023/07/20 00:42:25;;;;;;;1.87;1.30;;;25.00;53.30;;;;;;5113488;28;20174;-86
2023/07/20 00:44:51;;;;;;;2.43;1.40;;;25.00;53.30;;;;;;5106353;28;20278;-86
2023/07/20 00:47:17;;;;;;;2.43;1.60;;;25.00;53.30;;;;;;5109342;28;20220;-86
2023/07/20 00:49:43;;;;;;;1.70;1.20;;;25.00;53.30;;;;;;5111283;28;20478;-86
2023/07/20 00:52:13;;;;;;;2.50;1.53;;;24.90;53.30;;;;;;5106085;28;20567;-86
2023/07/20 00:54:38;;;;;;;1.40;1.30;;;24.90;53.30;;;;;;5105803;28;20167;-86
2023/07/20 00:57:07;;;;;;;1.70;1.20;;;24.90;53.20;;;;;;5105078;28;20447;-86
2023/07/20 00:59:33;;;;;;;2.20;1.20;;;24.90;53.30;;;;;;5101016;28;20236;-86
2023/07/20 01:01:58;;;;;;;1.40;1.30;;;25.00;53.30;;;;;;5103785;28;20300;-86
2023/07/20 01:04:26;;;;;;;1.70;1.50;;;24.90;53.30;;;;;;5103834;28;20257;-86
2023/07/20 01:07:12;;;;;;;2.03;1.30;;;25.00;53.30;;;;;;5105007;28;20183;-86
2023/07/20 01:09:48;;;;;;;2.13;1.40;;;24.90;53.30;;;;;;5100556;28;20244;-86
2023/07/20 01:12:26;;;;;;;2.37;1.67;;;24.90;53.30;;;;;;5110666;28;20177;-86
2023/07/20 01:14:52;;;;;;;1.97;1.50;;;24.90;53.30;;;;;;5101181;28;20175;-86
2023/07/20 01:17:17;;;;;;;2.10;1.40;;;24.90;53.30;;;;;;5103259;28;20278;-86
2023/07/20 01:19:43;;;;;;;1.67;1.30;;;24.90;53.30;;;;;;5100908;28;20265;-86
2023/07/20 01:22:51;;;;;;;1.47;1.33;;;24.90;53.30;;;;;;5104023;28;20548;-86
2023/07/20 01:25:35;;;;;;;3.20;1.67;;;24.90;53.30;;;;;;5051373;28;20187;-86
2023/07/20 01:28:16;;;;;;;1.40;1.30;;;24.90;53.30;;;;;;5112240;28;20284;-86
2023/07/20 01:30:51;;;;;;;1.97;1.40;;;24.80;53.30;;;;;;5101642;28;20652;-86
2023/07/20 01:33:19;;;;;;;1.67;1.30;;;24.80;53.40;;;;;;5102653;28;20206;-86
2023/07/20 01:35:49;;;;;;;2.10;1.37;;;24.90;53.40;;;;;;5109740;28;20260;-87
2023/07/20 01:38:16;;;;;;;1.90;1.50;;;24.90;53.40;;;;;;5103316;28;20181;-87
2023/07/20 01:40:42;;;;;;;2.83;1.50;;;24.80;53.40;;;;;;5104982;28;20211;-87
2023/07/20 01:43:08;;;;;;;2.80;1.40;;;24.80;53.40;;;;;;5105266;28;20189;-87
2023/07/20 01:45:34;;;;;;;2.37;1.20;;;24.80;53.40;;;;;;5101971;28;20205;-87
2023/07/20 01:47:59;;;;;;;1.30;1.20;;;24.80;53.40;;;;;;5103424;28;20205;-87
2023/07/20 01:50:25;;;;;;;2.47;1.30;;;24.80;53.50;;;;;;5105276;28;20170;-87
2023/07/20 01:52:51;;;;;;;2.10;1.30;;;24.80;53.50;;;;;;5101571;28;20186;-87
2023/07/20 01:55:16;;;;;;;1.33;1.23;;;24.70;53.40;;;;;;5041818;28;20173;-86
2023/07/20 01:57:42;;;;;;;1.73;1.43;;;24.80;53.50;;;;;;5100881;28;20198;-87
2023/07/20 02:00:09;;;;;;;2.73;1.63;;;24.80;53.50;;;;;;5100024;28;20170;-87
2023/07/20 02:02:35;;;;;;;1.53;1.27;;;24.80;53.50;;;;;;5103060;28;20462;-87
2023/07/20 02:05:01;;;;;;;2.23;1.60;;;24.70;53.40;;;;;;5098185;28;20549;-87
2023/07/20 02:07:27;;;;;;;1.93;1.60;;;24.70;53.50;;;;;;5101007;28;20579;-87
2023/07/20 02:09:53;;;;;;;1.57;1.30;;;24.70;53.40;;;;;;5097100;28;20190;-87
2023/07/20 02:12:18;;;;;;;1.23;1.13;;;24.70;53.50;;;;;;5100176;28;20166;-87
2023/07/20 02:14:44;;;;;;;2.53;1.30;;;24.70;53.50;;;;;;5098974;28;20214;-87
2023/07/20 02:17:10;;;;;;;1.80;1.30;;;24.70;53.50;;;;;;5103979;28;20247;-87
2023/07/20 02:19:37;;;;;;;2.70;1.30;;;24.70;53.50;;;;;;5100385;28;20395;-87
2023/07/20 02:22:02;;;;;;;1.50;1.20;;;24.60;53.40;;;;;;5108795;28;20591;-87
2023/07/20 02:24:28;;;;;;;3.47;1.40;;;24.70;53.50;;;;;;5109271;28;20174;-87
2023/07/20 02:26:54;;;;;;;1.20;1.10;;;24.60;53.50;;;;;;5105906;28;20213;-87
2023/07/20 02:29:19;;;;;;;2.37;1.20;;;24.60;53.50;;;;;;5106712;28;20175;-86
2023/07/20 02:31:45;;;;;;;1.33;1.23;;;24.60;53.50;;;;;;5108345;28;20166;-86
2023/07/20 02:34:11;;;;;;;1.93;1.30;;;24.60;53.40;;;;;;5106031;28;20194;-86
2023/07/20 02:36:36;;;;;;;2.17;1.20;;;24.60;53.50;;;;;;5105502;28;20182;-86
2023/07/20 02:39:03;;;;;;;1.53;1.40;;;24.60;53.50;;;;;;5105612;28;20343;-86
2023/07/20 02:41:30;;;;;;;2.27;1.40;;;24.60;53.50;;;;;;5105319;28;20206;-86
2023/07/20 02:43:56;;;;;;;1.30;1.20;;;24.60;53.50;;;;;;5110041;28;20175;-86
2023/07/20 02:46:22;;;;;;;1.97;1.40;;;24.60;53.50;;;;;;5108538;28;20197;-86
2023/07/20 02:48:48;;;;;;;1.87;1.47;;;24.60;53.50;;;;;;5113253;28;20170;-86
2023/07/20 02:51:14;;;;;;;1.30;1.20;;;24.60;53.50;;;;;;5107687;28;20177;-86
2023/07/20 02:53:39;;;;;;;1.93;1.23;;;24.60;53.50;;;;;;5111673;28;20171;-86
2023/07/20 02:56:05;;;;;;;1.50;1.33;;;24.60;53.50;;;;;;5103995;28;20192;-86
2023/07/20 02:58:31;;;;;;;1.40;1.30;;;24.60;53.50;;;;;;5104313;28;20186;-86
2023/07/20 03:00:56;;;;;;;1.43;1.27;;;24.60;53.50;;;;;;5114672;28;20220;-86
2023/07/20 03:03:22;;;;;;;1.80;1.57;;;24.60;53.50;;;;;;5101011;28;20571;-86
2023/07/20 03:05:54;;;;;;;1.50;1.33;;;24.50;53.50;;;;;;5105307;28;20524;-86
2023/07/20 03:08:20;;;;;;;1.77;1.40;;;24.50;53.50;;;;;;5104219;28;20587;-86
2023/07/20 03:10:45;;;;;;;1.30;1.20;;;24.60;53.50;;;;;;5108140;28;20182;-86
2023/07/20 03:13:12;;;;;;;1.50;1.30;;;24.50;53.50;;;;;;5104248;28;20270;-86
2023/07/20 03:15:38;;;;;;;2.07;1.30;;;24.60;53.60;;;;;;5103275;28;20178;-86
2023/07/20 03:18:04;;;;;;;1.53;1.40;;;24.60;53.50;;;;;;5102515;28;20209;-86
2023/07/20 03:20:30;;;;;;;1.47;1.20;;;24.50;53.50;;;;;;5105499;28;20199;-86
2023/07/20 03:22:56;;;;;;;2.20;1.50;;;24.50;53.50;;;;;;5109567;28;20170;-86
2023/07/20 03:25:22;;;;;;;2.20;1.50;;;24.50;53.50;;;;;;5108299;28;20193;-86
2023/07/20 03:27:48;;;;;;;1.37;1.20;;;24.50;53.50;;;;;;5108704;28;20257;-86
2023/07/20 03:30:14;;;;;;;1.47;1.30;;;24.50;53.50;;;;;;5103549;28;20359;-86
2023/07/20 03:32:39;;;;;;;2.17;1.60;;;24.50;53.50;;;;;;5102265;28;20203;-86
2023/07/20 03:35:06;;;;;;;1.73;1.27;;;24.50;53.50;;;;;;5097981;28;20163;-86
2023/07/20 03:37:31;;;;;;;3.10;1.27;;;24.50;53.50;;;;;;5104184;28;20570;-86
2023/07/20 03:39:57;;;;;;;1.90;1.50;;;24.50;53.50;;;;;;5104201;28;20167;-86
2023/07/20 03:42:23;;;;;;;1.80;1.50;;;24.50;53.50;;;;;;5103655;28;20201;-86
2023/07/20 03:44:49;;;;;;;1.70;1.30;;;24.50;53.50;;;;;;5101007;28;20175;-87
2023/07/20 03:47:15;;;;;;;1.67;1.50;;;24.50;53.50;;;;;;5104968;28;20514;-86
2023/07/20 03:49:41;;;;;;;1.40;1.30;;;24.50;53.40;;;;;;5099695;28;20174;-86
2023/07/20 03:52:07;;;;;;;1.50;1.40;;;24.50;53.40;;;;;;5100378;28;20182;-86
2023/07/20 03:54:33;;;;;;;1.97;1.33;;;24.50;53.50;;;;;;5100142;28;20178;-86
2023/07/20 03:57:00;;;;;;;1.60;1.40;;;24.50;53.50;;;;;;5104851;28;20607;-86
2023/07/20 03:59:26;;;;;;;2.30;1.40;;;24.50;53.50;;;;;;5102691;28;20197;-86
2023/07/20 04:01:52;;;;;;;1.20;1.10;;;24.50;53.50;;;;;;5103382;28;20305;-86
2023/07/20 04:04:17;;;;;;;2.73;1.47;;;24.50;53.50;;;;;;5097710;28;20202;-87
2023/07/20 04:06:44;;;;;;;1.90;1.30;;;24.50;53.50;;;;;;5104110;28;20791;-87
2023/07/20 04:09:11;;;;;;;1.53;1.43;;;24.50;53.50;;;;;;5100332;28;20323;-87
2023/07/20 04:11:37;;;;;;;1.70;1.30;;;24.50;53.50;;;;;;5102680;28;20179;-87
2023/07/20 04:14:02;;;;;;;1.73;1.37;;;24.50;53.50;;;;;;5101700;28;20445;-87
2023/07/20 04:16:28;;;;;;;1.90;1.30;;;24.40;53.50;;;;;;5106649;28;20178;-87
2023/07/20 04:18:57;;;;;;;2.03;1.47;;;24.50;53.50;;;;;;5110299;28;20200;-87
2023/07/20 04:21:25;;;;;;;1.57;1.47;;;24.50;53.50;;;;;;5100578;28;20485;-87
2023/07/20 04:23:51;;;;;;;1.40;1.30;;;24.40;53.50;;;;;;5100953;28;20266;-87
2023/07/20 04:26:16;;;;;;;1.43;1.33;;;24.50;53.50;;;;;;5099910;28;20735;-87
2023/07/20 04:28:42;;;;;;;1.83;1.40;;;24.40;53.50;;;;;;5107278;28;20186;-87
2023/07/20 04:31:15;;;;;;;2.30;1.43;;;24.40;53.60;;;;;;5098330;28;20413;-87
2023/07/20 04:33:41;;;;;;;1.83;1.50;;;24.40;53.50;;;;;;5102447;28;20214;-87
2023/07/20 04:36:09;;;;;;;1.43;1.20;;;24.40;53.60;;;;;;5099721;28;20205;-87
2023/07/20 04:38:34;;;;;;;1.70;1.43;;;24.40;53.60;;;;;;5101416;28;20193;-87
2023/07/20 04:41:00;;;;;;;1.40;1.30;;;24.40;53.60;;;;;;5098334;28;20279;-87
2023/07/20 04:43:27;;;;;;;2.07;1.43;;;24.40;53.60;;;;;;5098326;28;20191;-87
2023/07/20 04:45:52;;;;;;;1.57;1.40;;;24.40;53.60;;;;;;5098318;28;20182;-87
2023/07/20 04:48:18;;;;;;;2.10;1.30;;;24.40;53.60;;;;;;5108646;28;20463;-87
2023/07/20 04:50:45;;;;;;;1.57;1.47;;;24.40;53.60;;;;;;5101514;28;20175;-87
2023/07/20 04:53:14;;;;;;;2.03;1.60;;;24.40;53.60;;;;;;5101448;28;20567;-87
2023/07/20 04:55:40;;;;;;;2.27;1.40;;;24.40;53.60;;;;;;5099249;28;20175;-87
2023/07/20 04:58:07;;;;;;;1.83;1.50;;;24.40;53.60;;;;;;5104835;28;20186;-87
2023/07/20 05:00:51;;;;;;;1.83;1.50;;;24.40;53.70;;;;;;5099372;28;20232;-88
2023/07/20 05:03:17;;;;;;;1.90;1.40;;;24.40;53.60;;;;;;5101957;28;20174;-88
2023/07/20 05:05:44;;;;;;;1.97;1.50;;;24.40;53.60;;;;;;5098709;28;20578;-88
2023/07/20 05:08:09;;;;;;;2.23;1.33;;;24.50;53.60;;;;;;5105058;28;20265;-88
2023/07/20 05:10:35;;;;;;;1.47;1.37;;;24.50;53.60;;;;;;5099115;28;20280;-88
2023/07/20 05:13:01;;;;;;;2.33;1.67;;;24.50;53.50;;;;;;5096602;28;20174;-88
2023/07/20 05:15:26;;;;;;;1.77;1.60;;;24.50;53.50;;;;;;5100977;28;20320;-88
2023/07/20 05:17:52;;;;;;;2.23;1.60;;;24.50;53.40;;;;;;5100534;28;20193;-88
2023/07/20 05:20:18;;;;;;;2.80;1.47;;;24.50;53.40;;;;;;5096723;28;20464;-88
2023/07/20 05:22:44;;;;;;;1.50;1.40;;;24.50;53.40;;;;;;5099153;28;20178;-88
2023/07/20 05:25:11;;;;;;;2.07;1.53;;;24.60;53.40;;;;;;5097688;28;20315;-88
2023/07/20 05:27:38;;;;;;;2.13;1.40;;;24.60;53.30;;;;;;5100295;28;20205;-88
2023/07/20 05:30:05;;;;;;;1.77;1.37;;;24.60;53.30;;;;;;5102220;28;20198;-88
2023/07/20 05:32:31;;;;;;;1.63;1.50;;;24.60;53.20;;;;;;5100225;28;20209;-88
2023/07/20 05:34:57;;;;;;;2.47;1.40;;;24.60;53.30;;;;;;5096679;28;20198;-88
2023/07/20 05:37:22;;;;;;;1.73;1.47;;;24.60;53.70;;;;;;5101027;28;20186;-88
2023/07/20 05:39:48;;;;;;;1.93;1.60;;;24.60;53.40;;;;;;5099464;28;20236;-88
2023/07/20 05:42:14;;;;;;;2.57;1.60;;;24.60;53.30;;;;;;5098087;28;20261;-88
2023/07/20 05:44:40;;;;;;;2.23;1.60;;;24.60;53.40;;;;;;5099614;28;20182;-88
2023/07/20 05:47:07;;;;;;;3.13;1.70;;;24.60;53.30;;;;;;5102483;28;20470;-88
2023/07/20 05:49:32;;;;;;;1.97;1.50;;;24.60;53.40;;;;;;5099260;28;20578;-88
2023/07/20 05:51:58;;;;;;;3.67;1.83;;;24.60;53.40;;;;;;5097060;28;20274;-89
2023/07/20 05:54:25;;;;;;;2.90;1.70;;;24.60;53.50;;;;;;5101367;28;20455;-88
2023/07/20 05:56:51;;;;;;;2.10;1.50;;;24.60;53.50;;;;;;5098827;28;20190;-88
2023/07/20 05:59:16;;;;;;;1.87;1.70;;;24.60;53.50;;;;;;5099861;28;20383;-88
2023/07/20 06:01:43;;;;;;;5.17;2.07;;;24.60;53.50;;;;;;5100979;28;20481;-88
2023/07/20 06:04:09;;;;;;;2.83;1.80;;;24.60;53.50;;;;;;5101236;28;20170;-88
2023/07/20 06:06:35;;;;;;;3.13;2.20;;;24.60;53.50;;;;;;5093665;28;20178;-88
2023/07/20 06:09:04;;;;;;;3.30;1.90;;;24.60;53.50;;;;;;5099992;28;20247;-88
2023/07/20 06:11:30;;;;;;;1.80;1.70;;;24.60;53.50;;;;;;5100818;28;20265;-88
2023/07/20 06:13:57;;;;;;;2.53;1.70;;;24.60;53.60;;;;;;5098432;28;20183;-88
2023/07/20 06:16:22;;;;;;;2.13;1.90;;;24.60;53.50;;;;;;5099075;28;20198;-88
2023/07/20 06:18:48;;;;;;;1.90;1.70;;;24.60;53.60;;;;;;5099126;28;20533;-88
2023/07/20 06:21:14;;;;;;;2.20;1.90;;;24.60;53.60;;;;;;5095159;28;20236;-88
2023/07/20 06:23:41;;;;;;;2.93;2.10;;;24.60;53.60;;;;;;5100718;28;20178;-88
2023/07/20 06:26:07;;;;;;;2.50;2.30;;;24.50;53.70;;;;;;5096595;28;20178;-88
2023/07/20 06:28:33;;;;;;;3.63;2.20;;;24.60;53.70;;;;;;5097488;28;20220;-88
2023/07/20 06:31:02;;;;;;;2.90;2.37;;;24.60;53.70;;;;;;5094550;28;20195;-88
2023/07/20 06:33:29;;;;;;;4.20;2.43;;;24.60;53.70;;;;;;5095854;28;20289;-88
2023/07/20 06:35:54;;;;;;;3.67;2.30;;;24.60;53.70;;;;;;5104341;28;20193;-88
2023/07/20 06:38:20;;;;;;;2.80;2.03;;;24.60;53.60;;;;;;5094110;28;20178;-88
2023/07/20 06:40:46;;;;;;;3.77;2.80;;;24.60;53.70;;;;;;5095702;28;20220;-88
2023/07/20 06:43:12;;;;;;;3.70;2.27;;;24.50;53.70;;;;;;5092160;28;20595;-88
2023/07/20 06:45:38;;;;;;;4.03;2.30;;;24.50;53.70;;;;;;5094508;28;20174;-88
2023/07/20 06:48:04;;;;;;;3.07;2.50;;;24.50;53.70;;;;;;5092024;28;20348;-87
2023/07/20 06:50:30;;;;;;;3.20;2.40;;;24.50;53.60;;;;;;5094839;28;20211;-88
2023/07/20 06:52:55;;;;;;;2.83;2.20;;;24.50;53.60;;;;;;5092333;28;20382;-88
2023/07/20 06:55:21;;;;;;;2.97;2.30;;;24.50;53.60;;;;;;5096984;28;20182;-88
2023/07/20 06:57:47;;;;;;;2.60;2.40;;;24.60;53.60;;;;;;5093618;28;20327;-87
2023/07/20 07:00:13;;;;;;;3.10;2.80;;;24.60;53.50;;;;;;5095007;28;20239;-88
2023/07/20 07:02:39;;;;;;;3.80;2.50;;;24.60;53.50;;;;;;5096824;28;20251;-88
2023/07/20 07:05:05;;;;;;;2.90;2.40;;;24.60;53.40;;;;;;5093467;28;20486;-88
2023/07/20 07:07:30;;;;;;;2.90;2.60;;;24.60;53.50;;;;;;5097127;28;20622;-88
2023/07/20 07:09:57;;;;;;;2.93;2.63;;;24.70;53.50;;;;;;5101105;28;20195;-88
2023/07/20 07:12:22;;;;;;;3.20;2.53;;;24.70;53.40;;;;;;5081529;28;20202;-88
2023/07/20 07:14:48;;;;;;;2.97;2.27;;;24.70;53.40;;;;;;5101677;28;20178;-87
2023/07/20 07:17:14;;;;;;;4.90;2.73;;;24.70;53.40;;;;;;5097478;28;20282;-88
2023/07/20 07:19:40;;;;;;;2.67;2.33;;;24.70;53.40;;;;;;5096931;28;20235;-88
2023/07/20 07:22:06;;;;;;;2.50;2.30;;;24.70;53.40;;;;;;5102648;28;20468;-88
2023/07/20 07:24:34;;;;;;;2.60;2.37;;;24.70;53.50;;;;;;5099826;28;20174;-88
2023/07/20 07:27:01;;;;;;;5.00;2.87;;;24.70;53.50;;;;;;5101234;28;20277;-88
2023/07/20 07:29:27;;;;;;;3.40;2.40;;;24.70;53.70;;;;;;5093119;28;20571;-88
2023/07/20 07:31:52;;;;;;;2.57;2.37;;;24.70;53.50;;;;;;5098889;28;20179;-88
2023/07/20 07:34:18;;;;;;;2.70;2.50;;;24.80;53.60;;;;;;5100793;28;20194;-88
2023/07/20 07:36:44;;;;;;;2.90;2.50;;;24.90;53.50;;;;;;5096606;28;20516;-88
2023/07/20 07:39:10;;;;;;;2.77;2.47;;;25.00;53.50;;;;;;5101551;28;20182;-88
2023/07/20 07:41:35;;;;;;;2.73;2.50;;;25.10;53.50;;;;;;5096991;28;20210;-88
2023/07/20 07:44:01;;;;;;;2.70;2.30;;;25.10;53.50;;;;;;5101234;28;20239;-87
2023/07/20 07:46:27;;;;;;;2.60;2.40;;;25.10;53.40;;;;;;5095260;28;20208;-87
2023/07/20 07:48:53;;;;;;;2.60;2.40;;;25.20;53.80;;;;;;5098604;28;20231;-88
2023/07/20 07:51:19;;;;;;;2.47;2.27;;;25.20;53.30;;;;;;5100481;28;20492;-88
2023/07/20 07:53:46;;;;;;;2.33;2.13;;;25.30;53.20;;;;;;5096687;28;20214;-88
2023/07/20 07:56:12;;;;;;;3.03;2.30;;;25.40;53.20;;;;;;5099462;28;20415;-88
2023/07/20 07:58:38;;;;;;;2.47;2.27;;;25.40;53.20;;;;;;5096327;28;20183;-88
2023/07/20 08:01:04;;;;;;;2.23;1.90;;;25.50;53.20;;;;;;5101303;28;20222;-88
2023/07/20 08:03:29;;;;;;;2.17;1.97;;;25.50;53.20;;;;;;5099933;28;20282;-88
2023/07/20 08:05:55;;;;;;;2.33;2.10;;;25.50;53.10;;;;;;5097736;28;20273;-88
2023/07/20 08:08:22;;;;;;;2.40;2.20;;;25.60;53.00;;;;;;5096877;28;20264;-88
2023/07/20 08:10:48;;;;;;;2.57;2.30;;;25.60;52.90;;;;;;5096522;28;20179;-88
2023/07/20 08:13:14;;;;;;;3.03;2.10;;;25.70;52.90;;;;;;5098558;28;20179;-88
2023/07/20 08:15:41;;;;;;;2.40;2.10;;;25.90;52.80;;;;;;5099293;28;20348;-88
2023/07/20 08:18:07;;;;;;;2.00;1.90;;;26.00;52.80;;;;;;5095007;28;20303;-88
2023/07/20 08:20:35;;;;;;;2.20;2.00;;;26.10;52.70;;;;;;5096062;28;20186;-88
2023/07/20 08:23:01;;;;;;;2.20;2.00;;;26.10;52.60;;;;;;5094570;28;20412;-88
2023/07/20 08:25:26;;;;;;;2.30;2.00;;;26.20;52.50;;;;;;5096826;28;20189;-88
2023/07/20 08:27:52;;;;;;;3.03;2.03;;;26.20;52.40;;;;;;5094688;28;20413;-88
2023/07/20 08:30:21;;;;;;;1.83;1.70;;;26.20;52.40;;;;;;5092263;28;20197;-88
2023/07/20 08:32:47;;;;;;;1.97;1.80;;;26.20;52.40;;;;;;5098636;28;20197;-88
2023/07/20 08:35:13;;;;;;;2.20;2.00;;;26.20;52.40;;;;;;5093692;28;20434;-88
2023/07/20 08:37:39;;;;;;;2.10;1.90;;;26.20;52.50;;;;;;5092496;28;20202;-88
2023/07/20 08:40:08;;;;;;;1.90;1.73;;;26.10;52.40;;;;;;5095146;28;20178;-88
2023/07/20 08:42:34;;;;;;;2.03;1.87;;;26.10;52.40;;;;;;5095952;28;20302;-88
2023/07/20 08:45:00;;;;;;;2.10;1.90;;;26.20;52.40;;;;;;5095348;28;20266;-88
2023/07/20 08:47:26;;;;;;;2.75;1.70;;;26.30;52.40;;;;;;5095613;28;20182;-88
2023/07/20 08:49:54;;;;;;;1.60;1.50;;;26.40;52.30;;;;;;5099476;28;20198;-88
2023/07/20 08:52:20;;;;;;;1.80;1.70;;;26.40;52.20;;;;;;5095210;28;20236;-88
2023/07/20 08:54:46;;;;;;;1.90;1.80;;;26.60;52.10;;;;;;5094510;28;20718;-89
2023/07/20 08:57:14;;;;;;;2.00;1.90;;;26.60;52.00;;;;;;5095069;28;20243;-88
2023/07/20 08:59:41;;;;;;;1.90;1.70;;;26.60;52.00;;;;;;5095552;28;20272;-88
2023/07/20 09:02:13;;;;;;;2.10;1.90;;;26.70;51.90;;;;;;5093252;28;20295;-88
2023/07/20 09:04:39;;;;;;;3.08;1.83;;;26.70;51.80;;;;;;5097668;28;20209;-88
2023/07/20 09:07:05;;;;;;;1.70;1.50;;;26.70;51.80;;;;;;5092014;28;20715;-88
2023/07/20 09:09:31;;;;;;;1.90;1.80;;;26.80;51.80;;;;;;5096091;28;20837;-88
2023/07/20 09:11:56;;;;;;;1.90;1.70;;;26.80;51.70;;;;;;5093222;28;20459;-88
2023/07/20 09:14:23;;;;;;;1.73;1.63;;;26.90;51.60;;;;;;5094351;28;20178;-88
2023/07/20 09:16:50;;;;;;;1.92;1.83;;;27.00;51.50;;;;;;5096286;28;20491;-89
2023/07/20 09:19:17;;;;;;;1.73;1.63;;;27.10;51.50;;;;;;5093957;28;20289;-88
2023/07/20 09:21:51;;;;;;;1.80;1.70;;;27.20;51.30;;;;;;5093843;28;20202;-88
2023/07/20 09:24:20;;;;;;;1.67;1.58;;;27.30;51.20;;;;;;5094051;28;20181;-88
2023/07/20 09:26:50;;;;;;;1.92;1.80;;;27.30;51.10;;;;;;5093108;28;20284;-88
2023/07/20 09:29:20;;;;;;;1.90;1.80;;;27.40;51.00;;;;;;5088644;28;20433;-88
2023/07/20 09:32:04;;;;;;;2.03;1.52;;;27.50;51.00;;;;;;5094291;28;20193;-88
2023/07/20 09:34:34;;;;;;;2.95;1.92;;;27.60;51.00;;;;;;5090440;28;20186;-87
2023/07/20 09:37:00;;;;;;;1.90;1.80;;;27.60;50.80;;;;;;5093454;28;20242;-88
2023/07/20 09:39:26;;;;;;;1.85;1.75;;;27.70;50.80;;;;;;5094634;28;20186;-88
2023/07/20 09:41:53;;;;;;;1.80;1.70;;;27.60;50.80;;;;;;5091722;28;20290;-88
2023/07/20 09:44:19;;;;;;;1.65;1.55;;;27.60;50.80;;;;;;5095556;28;20181;-88
2023/07/20 09:46:50;;;;;;;1.70;1.60;;;27.70;50.70;;;;;;5092383;28;20485;-88
2023/07/20 09:49:17;;;;;;;2.03;1.80;;;27.80;50.70;;;;;;5095715;28;20181;-88
2023/07/20 09:51:45;;;;;;;1.60;1.50;;;27.80;50.70;;;;;;5092474;28;20178;-89
2023/07/20 09:54:12;;;;;;;1.77;1.67;;;27.80;50.60;;;;;;5095038;28;20231;-87
2023/07/20 09:56:39;;;;;;;1.63;1.52;;;27.80;50.60;;;;;;5094893;28;20183;-88
2023/07/20 09:59:05;;;;;;;1.73;1.63;;;27.80;50.50;;;;;;5094972;28;20214;-88
2023/07/20 10:01:34;;;;;;;1.60;1.50;;;27.80;50.50;;;;;;5098025;28;20251;-88
2023/07/20 10:04:03;;;;;;;1.92;1.70;;;27.90;50.50;;;;;;5096771;28;20175;-88
2023/07/20 10:06:32;;;;;;;1.80;1.58;;;27.90;50.50;;;;;;5097777;28;20461;-88
2023/07/20 10:09:02;;;;;;;1.90;1.73;;;28.00;50.40;;;;;;5094952;28;20174;-88
2023/07/20 10:11:31;;;;;;;2.22;1.70;;;28.00;50.40;;;;;;5094392;28;20189;-88
2023/07/20 10:13:59;;;;;;;1.67;1.58;;;28.10;50.40;;;;;;5102529;28;20609;-88
2023/07/20 10:16:31;;;;;;;2.20;1.90;;;28.10;50.30;;;;;;5091464;28;20281;-88
2023/07/20 10:19:07;;;;;;;2.40;1.70;;;28.20;50.30;;;;;;5094375;28;20244;-88
2023/07/20 10:21:40;;;;;;;2.28;2.08;;;28.20;50.20;;;;;;5093669;28;20225;-88
2023/07/20 10:24:08;;;;;;;;;;;28.20;50.10;;;;;;5093241;28;20503;-88
2023/07/20 10:26:33;;;;;;;;;;;28.30;50.10;;;;;;5093352;28;19916;-88
2023/07/20 10:28:59;;;;;;;;;;;28.30;50.20;;;;;;5094390;28;20123;-88
2023/07/20 10:31:28;;;;;;;2.60;2.10;;;28.30;50.10;;;;;;5096551;28;20052;-87
2023/07/20 10:33:56;;;;;;;2.10;1.85;;;28.30;50.00;;;;;;5094065;28;20483;-88
2023/07/20 10:36:27;;;;;;;1.98;1.88;;;28.30;49.90;;;;;;5091604;28;20191;-88
2023/07/20 10:38:57;;;;;;;2.10;2.00;;;28.40;50.00;;;;;;5093402;28;20182;-88
2023/07/20 10:41:28;;;;;;;2.33;2.13;;;28.30;49.90;;;;;;5095255;28;20318;-89
2023/07/20 10:44:05;;;;;;;2.17;1.90;;;28.30;49.90;;;;;;5096086;28;20178;-88
2023/07/20 10:46:48;;;;;;;1.95;1.85;;;28.40;49.90;;;;;;5092671;28;20354;-87
2023/07/20 10:49:15;;;;;;;2.55;2.00;;;28.40;49.90;;;;;;5095596;28;20179;-87
2023/07/20 10:51:49;;;;;;;2.05;1.90;;;28.40;49.90;;;;;;5096893;28;20289;-88
2023/07/20 10:54:17;;;;;;;2.10;1.90;;;28.40;49.90;;;;;;5097823;28;20555;-87
2023/07/20 10:56:52;;;;;;;2.22;2.03;;;28.40;49.90;;;;;;5094631;28;20269;-88
2023/07/20 10:59:24;;;;;;;3.05;2.28;;;28.20;50.10;;;;;;5101475;28;20188;-88
2023/07/20 11:01:59;;;;;;;5.03;2.10;;;28.20;50.10;;;;;;5094933;28;20298;-88
2023/07/20 11:04:46;;;;;;;2.45;2.25;;;28.00;50.10;;;;;;5095217;28;20209;-88
2023/07/20 11:07:17;;;;;;;2.50;2.25;;;28.00;50.20;;;;;;5101852;28;20256;-87
2023/07/20 11:09:43;;;;;;;3.05;2.30;;;27.90;50.10;;;;;;5095064;28;20460;-87
2023/07/20 11:12:18;;;;;;;2.30;2.10;;;27.90;50.10;;;;;;5098487;28;20208;-87
2023/07/20 11:14:55;;;;;;;2.30;2.10;;;27.90;50.10;;;;;;5095483;28;20178;-87
2023/07/20 11:17:31;;;;;;;2.25;2.05;;;27.90;50.10;;;;;;5099974;28;20690;-87
2023/07/20 11:19:58;;;;;;;3.15;2.25;;;27.90;50.00;;;;;;5093997;28;20212;-87
2023/07/20 11:22:24;;;;;;;4.03;2.22;;;27.80;50.10;;;;;;5096273;28;20210;-88
2023/07/20 11:24:50;;;;;;;2.07;1.97;;;27.90;50.10;;;;;;5096948;27;20167;-87
2023/07/20 11:27:22;;;;;;;2.85;2.10;;;27.80;50.00;;;;;;5095130;28;20171;-87
2023/07/20 11:29:48;;;;;;;3.20;2.13;;;27.80;50.00;;;;;;5096181;28;20182;-87
2023/07/20 11:32:21;;;;;;;2.50;1.85;;;27.80;50.00;;;;;;5092700;28;20236;-87
2023/07/20 11:34:48;;;;;;;4.68;2.10;;;27.80;50.00;;;;;;5094926;27;20184;-88
2023/07/20 11:37:14;;;;;;;6.15;2.45;;;27.80;49.90;;;;;;5096454;28;20623;-87
2023/07/20 11:39:40;;;;;;;5.38;2.30;;;27.80;49.90;;;;;;5095003;28;20638;-88
2023/07/20 11:42:06;;;;;;;4.60;2.30;;;27.80;49.80;;;;;;5095710;28;20321;-88
2023/07/20 11:44:32;;;;;;;4.05;2.47;;;27.80;49.80;;;;;;5094928;28;20505;-88
2023/07/20 11:47:10;;;;;;;4.67;2.53;;;27.70;49.70;;;;;;5099306;28;20170;-88
2023/07/20 11:49:49;;;;;;;4.63;2.53;;;27.70;49.80;;;;;;5100824;28;20277;-88
2023/07/20 11:52:16;;;;;;;5.97;2.37;;;27.70;49.70;;;;;;5095573;28;20355;-87
2023/07/20 11:54:43;;;;;;;2.63;1.90;;;27.70;49.60;;;;;;5094387;28;20186;-87
2023/07/20 11:57:22;;;;;;;4.53;2.10;;;27.70;49.60;;;;;;5106022;28;20271;-88
2023/07/20 12:00:01;;;;;;;3.60;1.77;;;27.70;49.60;;;;;;5097653;28;20235;-87
2023/07/20 12:02:27;;;;;;;3.25;1.95;;;27.80;49.70;;;;;;5098413;28;20300;-88
2023/07/20 12:04:54;;;;;;;3.47;1.85;;;27.70;49.60;;;;;;5097740;28;20179;-89
2023/07/20 12:07:21;;;;;;;3.22;2.05;;;27.70;49.60;;;;;;5094043;28;20170;-89
2023/07/20 12:10:11;;;;;;;3.17;1.53;;;27.80;49.60;;;;;;5106026;28;20614;-88
2023/07/20 12:12:40;;;;;;;3.35;1.70;;;27.80;49.50;;;;;;5094227;28;20687;-88
2023/07/20 12:15:32;;;;;;;3.37;1.70;;;27.90;49.50;;;;;;5093325;28;20567;-88
2023/07/20 12:18:02;;;;;;;2.23;1.50;;;27.80;49.60;;;;;;5087958;28;20186;-89
2023/07/20 12:20:38;;;;;;;2.47;1.43;;;27.90;49.60;;;;;;5093144;28;20191;-88
2023/07/20 12:23:12;;;;;;;2.03;1.30;;;27.90;49.50;;;;;;5100306;28;20288;-89
2023/07/20 12:25:39;;;;;;;2.47;1.63;;;27.90;49.50;;;;;;5093735;28;20210;-88
2023/07/20 12:28:06;;;;;;;2.47;1.60;;;27.80;49.60;;;;;;5089884;28;20365;-88
2023/07/20 12:30:33;;;;;;;1.38;1.27;;;27.70;49.60;;;;;;5102306;28;20568;-89
2023/07/20 12:32:58;;;;;;;1.50;1.30;;;27.80;49.60;;;;;;5091900;28;20370;-89
2023/07/20 12:35:24;;;;;;;2.08;1.30;;;27.70;49.60;;;;;;5097619;28;20170;-89
2023/07/20 12:37:51;;;;;;;1.90;1.37;;;27.80;49.60;;;;;;5093481;28;20278;-88
2023/07/20 12:40:17;;;;;;;1.92;1.33;;;27.80;49.50;;;;;;5097270;28;20169;-88
2023/07/20 12:42:43;;;;;;;2.00;1.10;;;27.80;49.40;;;;;;5091077;28;20202;-88
2023/07/20 12:45:09;;;;;;;1.40;1.30;;;27.80;49.30;;;;;;5092466;28;20205;-88
2023/07/20 12:47:34;;;;;;;3.93;1.30;;;27.80;49.20;;;;;;5092105;28;20333;-89
2023/07/20 12:50:00;;;;;;;1.67;1.40;;;27.80;49.20;;;;;;5095047;28;20582;-89